Huvudsida
METAR-TAF:

METAR-TAF

Flygplatser :

Dawadmi, Saudiarabien

latitud: 24-26-59N, longitud: 044-07-16E, höjd: 922 m

Aktuellt väderrapport

Denna rapport gjordes för 1 timme och 16 minuter sedan, klockan 20:00 UTC
Vind 10 kt från ost/sydost
Temperatur 27°C
Fuktighet 26%
Tryck 1016 hPa
Sikt 10 km eller mer
Inga moln under 1 500 m eller inga cumulonimbus

METAR: OEDM 212000Z 12010KT CAVOK 27/06 Q1016

Tid: 00:16 (21:16 UTC)

Väderprognos

Denna rapport gjordes för 16 timmar och 16 minuter sedan, klockan 05:00 UTC
Prognos gäller från 21 kl. 06 UTC till 21 kl. 20 UTC
Vind 12 kt från ost/nordost
Sikt: 7000 m
Få moln på en höjd av 4000 ft
Spridda moln på en höjd av 8000 ft
Temporärt
från 21 kl. 06 UTC till 21 kl. 18 UTC
Vind 20 kt varierande vindriktning
Sikt: 4000 m
Få moln på en höjd av 3500 ft, Cumulonimbus.
Spridda moln på en höjd av 4000 ft
högt damm drev, åska, regn

TAF: OEDM 210500Z 2106/2120 06012KT 7000 FEW040 SCT080 TEMPO 2106/2118 VRB20KT 4000 BLDU TSRA FEW035CB SCT040

Aktuella väderrapporter och prognoser från 4000 flygplatser (METAR- och TAF-rapporter).

De tillgängliga stationerna syns som gula och röda prickar på kartan.

För musen över prickarna för att se namnen på stationerna.

Klicka sedan för att få väderrapporter och prognoser.

För att ändra kartan: Klicka på de gröna knapparna med ett svart kors på för att zooma in; den gröna knappen med ett streck på för att zooma ut; eller på de gröna pilarna för angränsande kartor.


METAR-TAF: